Time;durP1;ratioP1;P1;durP2;ratioP2;P2;SDS_P1;SDS_P2;PMS_P1;PMS_P2;Temp;Humidity;BMP_temperature;BMP_pressure;BME280_temperature;BME280_humidity;BME280_pressure;Samples;Min_cycle;Max_cycle;Signal;HPM_P1;HPM_P2
2024/04/04 00:02:18;;;;;;;6.00;5.20;;;;;;;3.25;72.04;99738.45;102840;1262;112448;-73
2024/04/04 00:04:45;;;;;;;6.50;4.90;;;;;;;3.24;71.99;99738.79;101313;1262;1003571;-73
2024/04/04 00:07:11;;;;;;;6.90;5.20;;;;;;;3.21;72.05;99739.31;102691;1262;138789;-73
2024/04/04 00:09:38;;;;;;;7.10;5.40;;;;;;;3.19;71.89;99742.09;102077;1262;1003475;-73
2024/04/04 00:12:05;;;;;;;8.00;5.30;;;;;;;3.18;72.24;99741.59;102726;1262;138771;-72
2024/04/04 00:14:32;;;;;;;7.00;5.20;;;;;;;3.16;72.11;99740.75;103018;1262;111990;-73
2024/04/04 00:16:59;;;;;;;8.50;5.40;;;;;;;3.18;72.30;99744.34;103270;1262;106591;-74
2024/04/04 00:19:25;;;;;;;8.20;5.40;;;;;;;3.13;72.21;99737.86;101983;1262;1002918;-73
2024/04/04 00:21:52;;;;;;;8.00;5.10;;;;;;;3.15;72.06;99744.20;102059;1262;1003293;-73
2024/04/04 00:24:18;;;;;;;7.30;5.30;;;;;;;3.15;72.39;99747.81;102835;1262;138912;-73
2024/04/04 00:26:45;;;;;;;6.50;4.70;;;;;;;3.15;72.20;99746.61;102834;1267;114271;-73
2024/04/04 00:29:12;;;;;;;11.90;5.70;;;;;;;3.13;72.20;99749.89;102990;1266;107892;-73
2024/04/04 00:31:38;;;;;;;5.90;5.10;;;;;;;3.12;72.29;99746.81;103072;1266;138831;-73
2024/04/04 00:34:05;;;;;;;7.70;5.10;;;;;;;3.12;72.39;99745.27;102749;1262;108523;-73
2024/04/04 00:36:32;;;;;;;5.90;4.80;;;;;;;3.12;72.23;99743.55;102730;1262;138619;-73
2024/04/04 00:38:58;;;;;;;6.40;5.50;;;;;;;3.08;72.19;99742.04;102823;1262;114710;-73
2024/04/04 00:41:25;;;;;;;6.40;4.80;;;;;;;3.08;72.27;99746.00;102798;1262;108250;-73
2024/04/04 00:43:51;;;;;;;6.90;5.00;;;;;;;3.05;72.14;99749.27;102831;1262;138771;-73
2024/04/04 00:46:18;;;;;;;6.70;4.70;;;;;;;3.03;72.25;99748.08;102789;1266;109563;-73
2024/04/04 00:48:45;;;;;;;5.30;4.40;;;;;;;3.02;72.14;99746.72;102679;1262;138343;-74
2024/04/04 00:51:11;;;;;;;6.20;5.10;;;;;;;3.00;72.19;99751.73;102109;1262;1003795;-73
2024/04/04 00:53:38;;;;;;;6.20;4.70;;;;;;;2.97;72.19;99744.39;102778;1266;107360;-74
2024/04/04 00:56:05;;;;;;;6.40;5.50;;;;;;;2.98;72.39;99750.55;102756;1262;138376;-74
2024/04/04 00:58:32;;;;;;;7.60;5.20;;;;;;;2.97;72.44;99749.35;102856;1262;106161;-74
2024/04/04 01:00:58;;;;;;;6.10;4.50;;;;;;;2.95;72.33;99746.62;102087;1262;1004961;-73
2024/04/04 01:03:25;;;;;;;7.10;5.20;;;;;;;2.95;72.38;99747.48;102804;1262;112512;-74
2024/04/04 01:05:52;;;;;;;6.60;5.30;;;;;;;2.94;72.30;99744.58;102086;1262;1003147;-73
2024/04/04 01:08:20;;;;;;;7.60;5.40;;;;;;;2.93;72.48;99746.66;102789;1262;99127;-74
2024/04/04 01:10:46;;;;;;;6.70;5.00;;;;;;;2.93;72.53;99747.51;102031;1262;1003066;-74
2024/04/04 01:13:13;;;;;;;6.60;5.10;;;;;;;2.92;72.44;99749.08;102746;1266;139829;-72
2024/04/04 01:15:39;;;;;;;7.90;4.90;;;;;;;2.90;72.15;99750.46;102840;1265;113214;-73
2024/04/04 01:18:07;;;;;;;6.80;5.00;;;;;;;2.87;72.32;99748.08;102681;1262;138634;-73
2024/04/04 01:20:33;;;;;;;8.20;5.10;;;;;;;2.87;72.26;99746.53;102890;1262;99181;-73
2024/04/04 01:22:59;;;;;;;7.20;4.70;;;;;;;2.87;72.14;99743.45;102809;1267;108547;-73
2024/04/04 01:25:26;;;;;;;5.30;4.10;;;;;;;2.81;72.25;99734.03;102650;1262;138544;-73
2024/04/04 01:27:53;;;;;;;6.90;4.20;;;;;;;2.84;72.46;99744.30;102839;1262;111892;-73
2024/04/04 01:30:20;;;;;;;6.40;4.80;;;;;;;2.83;72.46;99745.02;101960;1262;1003723;-73
2024/04/04 01:32:46;;;;;;;7.50;4.60;;;;;;;2.82;72.39;99744.34;102788;1262;99351;-73
2024/04/04 01:35:13;;;;;;;6.70;4.70;;;;;;;2.79;72.27;99744.36;103014;1266;106914;-73
2024/04/04 01:37:41;;;;;;;7.90;4.80;;;;;;;2.77;72.55;99742.84;102730;1262;138572;-73
2024/04/04 01:40:09;;;;;;;5.70;4.60;;;;;;;2.76;72.25;99742.33;102849;1262;112341;-73
2024/04/04 01:42:36;;;;;;;5.60;4.60;;;;;;;2.75;72.45;99744.74;102024;1262;1003169;-73
2024/04/04 01:45:02;;;;;;;5.90;4.80;;;;;;;2.73;72.50;99747.86;102049;1262;1003465;-74
2024/04/04 01:47:29;;;;;;;6.00;4.50;;;;;;;2.72;72.44;99747.88;102785;1262;108022;-74
2024/04/04 01:49:56;;;;;;;6.00;4.40;;;;;;;2.72;72.53;99750.11;102669;1262;138369;-74
2024/04/04 01:52:22;;;;;;;6.00;4.50;;;;;;;2.72;72.41;99751.48;102880;1262;112582;-74
2024/04/04 01:54:49;;;;;;;6.50;4.80;;;;;;;2.70;72.45;99748.58;102661;1262;138600;-74
2024/04/04 01:57:16;;;;;;;5.10;4.40;;;;;;;2.71;72.39;99748.39;102974;1262;99290;-74
2024/04/04 01:59:42;;;;;;;5.10;4.40;;;;;;;2.71;72.45;99749.60;101948;1267;1003017;-75
2024/04/04 02:02:09;;;;;;;5.50;4.40;;;;;;;2.71;72.31;99747.54;102586;1262;138435;-75
2024/04/04 02:04:35;;;;;;;6.10;4.90;;;;;;;2.72;72.41;99746.85;102800;1262;113828;-74
2024/04/04 02:07:02;;;;;;;6.30;4.70;;;;;;;2.73;72.13;99745.29;102610;1262;138928;-74
2024/04/04 02:09:29;;;;;;;5.30;4.10;;;;;;;2.73;72.28;99748.71;101992;1262;1003205;-74
2024/04/04 02:11:55;;;;;;;7.00;4.90;;;;;;;2.74;72.51;99746.99;102257;1262;1003165;-75
2024/04/04 02:14:22;;;;;;;5.90;4.90;;;;;;;2.74;72.35;99744.08;102808;1265;99180;-75
2024/04/04 02:16:49;;;;;;;5.40;4.90;;;;;;;2.76;72.25;99738.73;102798;1262;112670;-75
2024/04/04 02:19:16;;;;;;;5.70;5.00;;;;;;;2.78;72.33;99742.31;102001;1262;1003363;-75
2024/04/04 02:21:42;;;;;;;6.80;4.90;;;;;;;2.79;72.38;99739.73;102901;1262;99712;-75
2024/04/04 02:24:09;;;;;;;4.70;4.20;;;;;;;2.80;72.39;99737.48;102878;1268;139173;-75
2024/04/04 02:26:35;;;;;;;5.80;4.60;;;;;;;2.82;72.31;99734.55;102954;1262;99191;-75
2024/04/04 02:29:02;;;;;;;4.60;3.90;;;;;;;2.83;72.14;99733.85;102949;1262;112091;-74
2024/04/04 02:31:29;;;;;;;5.50;4.50;;;;;;;2.83;72.07;99734.70;101929;1266;1003311;-74
2024/04/04 02:33:55;;;;;;;5.00;4.00;;;;;;;2.84;71.94;99731.44;102770;1262;99055;-74
2024/04/04 02:36:24;;;;;;;8.00;4.20;;;;;;;2.86;72.17;99738.13;101963;1262;1003275;-74
2024/04/04 02:38:50;;;;;;;4.60;3.70;;;;;;;2.87;72.20;99739.49;102826;1262;99195;-74
2024/04/04 02:41:17;;;;;;;4.70;4.20;;;;;;;2.87;71.92;99738.63;102820;1262;112590;-74
2024/04/04 02:43:44;;;;;;;5.50;4.30;;;;;;;2.88;72.05;99737.26;102609;1262;139133;-74
2024/04/04 02:46:11;;;;;;;5.10;4.20;;;;;;;2.86;71.94;99726.62;102771;1262;99815;-74
2024/04/04 02:48:38;;;;;;;4.60;4.10;;;;;;;2.90;71.97;99731.05;102621;1262;139866;-74
2024/04/04 02:51:06;;;;;;;6.80;4.40;;;;;;;2.89;71.87;99730.04;103093;1262;99162;-73
2024/04/04 02:53:32;;;;;;;4.90;3.70;;;;;;;2.88;71.67;99724.38;102202;1266;1002861;-73
2024/04/04 02:56:00;;;;;;;4.70;3.60;;;;;;;2.85;71.55;99722.67;102690;1262;138655;-73
2024/04/04 02:58:27;;;;;;;5.50;3.50;;;;;;;2.84;71.53;99722.85;102813;1262;99059;-74
2024/04/04 03:00:54;;;;;;;6.50;4.80;;;;;;;2.84;71.77;99720.63;102600;1262;138402;-73
2024/04/04 03:03:21;;;;;;;5.40;3.80;;;;;;;2.84;71.85;99723.02;102798;1266;99182;-73
2024/04/04 03:05:48;;;;;;;4.70;3.40;;;;;;;2.85;71.82;99721.13;103150;1262;112986;-73
2024/04/04 03:08:14;;;;;;;4.60;3.80;;;;;;;2.86;71.57;99723.86;102722;1262;139487;-73
2024/04/04 03:10:43;;;;;;;4.00;3.30;;;;;;;2.89;71.67;99721.63;102917;1265;99697;-73
2024/04/04 03:13:11;;;;;;;5.50;3.60;;;;;;;2.90;71.64;99725.05;102774;1262;138452;-73
2024/04/04 03:15:37;;;;;;;4.60;3.60;;;;;;;2.92;71.66;99725.89;102830;1262;99312;-73
2024/04/04 03:18:05;;;;;;;4.20;3.20;;;;;;;2.94;71.54;99722.77;102723;1262;139214;-73
2024/04/04 03:20:32;;;;;;;4.90;3.40;;;;;;;2.95;71.57;99718.46;102787;1262;106974;-73
2024/04/04 03:22:59;;;;;;;3.90;3.00;;;;;;;2.97;71.48;99722.90;102841;1262;99899;-73
2024/04/04 03:25:26;;;;;;;5.20;3.30;;;;;;;2.99;71.55;99726.14;102774;1262;138309;-73
2024/04/04 03:27:52;;;;;;;4.30;3.50;;;;;;;3.00;71.46;99726.30;102893;1262;99182;-73
2024/04/04 03:30:19;;;;;;;3.70;3.10;;;;;;;3.01;71.21;99725.09;102799;1262;138455;-72
2024/04/04 03:32:46;;;;;;;3.80;3.20;;;;;;;3.01;70.94;99724.91;102948;1263;109850;-72
2024/04/04 03:35:12;;;;;;;4.30;3.30;;;;;;;3.03;70.91;99722.15;102860;1262;99159;-72
2024/04/04 03:37:39;;;;;;;4.40;2.90;;;;;;;3.02;70.82;99724.05;102657;1266;138666;-72
2024/04/04 03:40:07;;;;;;;4.20;3.00;;;;;;;3.01;70.57;99720.98;102783;1262;99153;-72
2024/04/04 03:42:33;;;;;;;5.60;3.20;;;;;;;2.97;70.40;99731.15;102699;1262;138509;-72
2024/04/04 03:45:00;;;;;;;3.90;2.90;;;;;;;2.93;70.37;99738.92;102733;1262;107905;-72
2024/04/04 03:47:27;;;;;;;4.90;3.30;;;;;;;2.88;70.26;99745.84;102743;1262;100822;-73
2024/04/04 03:49:54;;;;;;;3.50;2.90;;;;;;;2.84;70.33;99750.67;101957;1267;1004207;-73
2024/04/04 03:52:20;;;;;;;4.00;3.00;;;;;;;2.81;70.48;99754.98;102692;1266;99277;-74
2024/04/04 03:54:47;;;;;;;4.00;2.90;;;;;;;2.79;70.48;99755.36;102758;1262;138967;-73
2024/04/04 03:57:15;;;;;;;3.50;3.20;;;;;;;2.75;70.09;99753.50;102724;1262;108053;-73
2024/04/04 03:59:41;;;;;;;4.80;2.90;;;;;;;2.72;70.24;99755.59;102847;1262;99074;-73
2024/04/04 04:02:08;;;;;;;3.80;3.40;;;;;;;2.69;70.28;99758.54;102809;1264;139013;-73
2024/04/04 04:04:34;;;;;;;4.90;3.40;;;;;;;2.66;70.28;99758.38;102880;1262;99283;-73
2024/04/04 04:07:01;;;;;;;4.10;3.30;;;;;;;2.63;70.23;99759.60;102311;1262;1003028;-73
2024/04/04 04:09:28;;;;;;;8.20;3.70;;;;;;;2.62;70.37;99760.30;102273;1262;1002948;-73
2024/04/04 04:11:54;;;;;;;4.20;3.20;;;;;;;2.59;70.58;99753.80;102878;1262;99677;-73
2024/04/04 04:14:21;;;;;;;6.30;3.60;;;;;;;2.57;70.44;99754.86;102748;1267;107486;-73
2024/04/04 04:16:48;;;;;;;7.60;3.70;;;;;;;2.56;70.50;99755.21;102715;1267;99055;-73
2024/04/04 04:19:15;;;;;;;6.50;3.60;;;;;;;2.54;70.66;99757.97;102862;1262;138952;-73
2024/04/04 04:21:42;;;;;;;5.30;3.90;;;;;;;2.53;70.64;99754.90;102853;1262;106634;-72
2024/04/04 04:24:09;;;;;;;6.90;3.90;;;;;;;2.49;70.60;99758.33;102674;1262;138679;-73
2024/04/04 04:26:36;;;;;;;5.00;3.80;;;;;;;2.47;70.77;99752.86;102728;1262;108509;-74
2024/04/04 04:29:02;;;;;;;7.00;4.50;;;;;;;2.46;70.96;99751.83;102892;1268;99171;-70
2024/04/04 04:31:31;;;;;;;6.20;4.00;;;;;;;2.49;71.86;99757.81;102002;1262;1003248;-68
2024/04/04 04:33:59;;;;;;;6.80;4.10;;;;;;;2.57;72.47;99762.07;102071;1262;1003698;-69
2024/04/04 04:36:28;;;;;;;6.70;4.30;;;;;;;2.66;72.36;99760.61;102663;1262;139885;-68
2024/04/04 04:38:55;;;;;;;7.60;4.80;;;;;;;2.76;72.29;99759.67;102808;1265;107215;-78
2024/04/04 04:41:22;;;;;;;7.20;4.60;;;;;;;2.89;71.80;99756.98;102816;1262;99376;-77
2024/04/04 04:43:49;;;;;;;7.10;4.60;;;;;;;3.04;71.57;99757.02;102745;1262;138251;-76
2024/04/04 04:46:16;;;;;;;5.80;4.30;;;;;;;3.28;71.29;99757.63;102011;1262;1003042;-77
2024/04/04 04:48:43;;;;;;;8.40;5.10;;;;;;;3.77;71.32;99750.36;101947;1262;1003542;-75
2024/04/04 04:51:10;;;;;;;6.60;4.60;;;;;;;4.31;69.99;99750.67;102787;1262;107258;-75
2024/04/04 04:53:37;;;;;;;6.80;4.40;;;;;;;4.24;68.65;99749.91;102737;1265;99268;-75
2024/04/04 04:56:04;;;;;;;7.60;4.70;;;;;;;4.06;68.50;99753.24;102625;1267;138264;-75
2024/04/04 04:58:31;;;;;;;6.00;4.20;;;;;;;3.93;68.40;99753.10;102763;1262;107832;-75
2024/04/04 05:00:58;;;;;;;10.70;4.50;;;;;;;3.82;68.55;99750.66;102712;1262;138410;-76
2024/04/04 05:03:25;;;;;;;5.40;4.10;;;;;;;3.78;68.79;99751.75;102647;1267;108952;-76
2024/04/04 05:05:53;;;;;;;8.30;4.60;;;;;;;3.73;68.78;99753.51;102826;1262;99211;-77
2024/04/04 05:08:20;;;;;;;7.10;4.20;;;;;;;3.73;68.96;99750.42;102739;1262;138161;-78
2024/04/04 05:10:47;;;;;;;10.00;4.00;;;;;;;3.74;68.95;99761.59;102784;1261;107101;-78
2024/04/04 05:13:14;;;;;;;7.80;4.30;;;;;;;3.74;68.91;99766.05;102773;1262;138635;-76
2024/04/04 05:15:47;;;;;;;8.90;4.60;;;;;;;3.73;69.01;99768.98;102834;1265;106147;-75
2024/04/04 05:18:13;;;;;;;6.30;4.70;;;;;;;3.76;68.92;99763.61;102885;1262;138646;-75
2024/04/04 05:20:40;;;;;;;5.20;4.10;;;;;;;3.81;68.87;99762.89;102729;1262;144731;-76
2024/04/04 05:23:07;;;;;;;8.20;4.30;;;;;;;3.82;68.53;99759.77;102829;1267;105604;-75
2024/04/04 05:25:36;;;;;;;7.90;3.90;;;;;;;3.87;68.53;99757.98;102706;1266;138484;-75
2024/04/04 05:28:03;;;;;;;4.50;3.50;;;;;;;3.91;68.25;99760.33;102744;1266;109105;-75
2024/04/04 05:30:31;;;;;;;8.10;4.10;;;;;;;3.89;68.14;99760.88;102006;1266;1003593;-74
2024/04/04 05:33:00;;;;;;;3.70;3.30;;;;;;;3.90;68.12;99757.95;102161;1262;1003395;-72
2024/04/04 05:35:26;;;;;;;6.60;3.60;;;;;;;3.96;68.05;99766.84;102718;1266;106843;-76
2024/04/04 05:37:53;;;;;;;10.70;3.50;;;;;;;4.01;67.95;99768.48;102667;1266;138434;-74
2024/04/04 05:40:19;;;;;;;11.00;3.80;;;;;;;3.99;67.35;99773.66;102770;1262;107449;-74
2024/04/04 05:42:46;;;;;;;8.00;3.60;;;;;;;3.93;67.34;99773.73;102614;1262;138620;-74
2024/04/04 05:45:12;;;;;;;10.10;3.20;;;;;;;3.87;67.00;99774.66;102754;1266;112548;-74
2024/04/04 05:47:39;;;;;;;8.20;3.90;;;;;;;3.81;67.12;99776.81;102703;1262;108566;-75
2024/04/04 05:50:09;;;;;;;13.70;4.00;;;;;;;3.79;67.43;99780.63;102051;1266;1003485;-83
2024/04/04 05:52:35;;;;;;;9.40;3.40;;;;;;;3.80;67.58;99780.27;102965;1262;107472;-77
2024/04/04 05:55:02;;;;;;;4.80;3.30;;;;;;;3.79;67.51;99786.14;101173;1267;1003579;-78
2024/04/04 05:57:29;;;;;;;7.90;4.30;;;;;;;3.79;67.44;99782.68;102773;1262;112930;-76
2024/04/04 05:59:56;;;;;;;8.00;4.00;;;;;;;3.80;67.68;99785.59;102730;1262;108003;-76
2024/04/04 06:02:23;;;;;;;6.70;4.00;;;;;;;3.81;67.57;99786.61;102849;1267;99162;-76
2024/04/04 06:04:50;;;;;;;9.40;3.90;;;;;;;3.83;67.74;99783.48;102787;1262;108611;-76
2024/04/04 06:07:17;;;;;;;5.40;3.50;;;;;;;3.85;67.72;99776.24;102733;1262;138976;-76
2024/04/04 06:09:44;;;;;;;9.30;4.30;;;;;;;3.87;67.68;99769.15;101945;1267;1003431;-77
2024/04/04 06:12:11;;;;;;;8.70;4.40;;;;;;;3.91;67.90;99769.10;102595;1262;138925;-76
2024/04/04 06:14:39;;;;;;;9.80;4.40;;;;;;;3.95;67.92;99770.61;102678;1262;100023;-77
2024/04/04 06:17:06;;;;;;;11.10;4.90;;;;;;;4.02;68.18;99774.14;102638;1261;107025;-75
2024/04/04 06:19:33;;;;;;;9.80;4.80;;;;;;;4.09;68.14;99778.84;102717;1268;138732;-77
2024/04/04 06:22:00;;;;;;;10.90;4.90;;;;;;;4.17;67.88;99779.62;102775;1267;112880;-72
2024/04/04 06:24:27;;;;;;;9.30;4.80;;;;;;;4.18;67.85;99780.63;103010;1264;139748;-90
2024/04/04 06:26:53;;;;;;;5.70;4.70;;;;;;;4.20;68.02;99781.80;102905;1266;99053;-83
2024/04/04 06:29:23;;;;;;;7.20;4.70;;;;;;;4.25;67.99;99780.86;102782;1263;108551;-83
2024/04/04 06:31:50;;;;;;;9.40;4.80;;;;;;;4.32;68.06;99784.23;102724;1262;138576;-82
2024/04/04 06:34:17;;;;;;;9.10;5.00;;;;;;;4.37;68.02;99780.89;102765;1262;113494;-86
2024/04/04 06:36:44;;;;;;;9.80;5.10;;;;;;;4.39;67.80;99775.68;102753;1264;138531;-85
2024/04/04 06:39:12;;;;;;;10.50;5.10;;;;;;;4.39;67.67;99773.80;102850;1267;99260;-82
2024/04/04 06:41:38;;;;;;;7.90;5.40;;;;;;;4.34;67.77;99778.69;102807;1267;107654;-82
2024/04/04 06:44:05;;;;;;;8.70;5.10;;;;;;;4.39;68.21;99776.36;102708;1267;138633;-83
2024/04/04 06:46:32;;;;;;;8.50;4.50;;;;;;;4.46;68.01;99775.05;102093;1263;1003107;-83
2024/04/04 06:48:59;;;;;;;10.80;5.50;;;;;;;4.51;67.95;99770.17;102617;1264;138740;-83
2024/04/04 06:51:25;;;;;;;13.10;5.30;;;;;;;4.59;67.86;99775.55;102876;1262;99182;-84
2024/04/04 06:53:52;;;;;;;7.50;5.20;;;;;;;4.62;67.94;99774.82;102151;1266;1003272;-83
2024/04/04 06:56:19;;;;;;;13.60;5.10;;;;;;;4.62;67.78;99778.42;102679;1264;138572;-85
2024/04/04 06:58:45;;;;;;;9.90;5.40;;;;;;;4.66;67.91;99778.70;102794;1262;114509;-83
2024/04/04 07:01:12;;;;;;;11.40;5.40;;;;;;;4.74;68.12;99774.30;102683;1268;139027;-86
2024/04/04 07:03:38;;;;;;;10.30;5.00;;;;;;;4.81;67.89;99777.09;102102;1262;1003815;-86
2024/04/04 07:06:06;;;;;;;11.00;5.30;;;;;;;4.84;67.87;99779.11;102685;1265;138928;-85
2024/04/04 07:08:35;;;;;;;6.60;5.20;;;;;;;4.86;67.75;99782.20;101394;1267;1003774;-82
2024/04/04 07:11:04;;;;;;;9.10;5.60;;;;;;;4.82;67.57;99784.30;102884;1267;112385;-80
2024/04/04 07:13:33;;;;;;;10.20;5.30;;;;;;;4.80;67.50;99782.61;102682;1264;138843;-79
2024/04/04 07:16:08;;;;;;;10.00;5.30;;;;;;;4.83;68.03;99789.11;102102;1266;1003421;-82
2024/04/04 07:18:34;;;;;;;6.80;5.10;;;;;;;4.89;67.90;99791.63;102117;1268;1003253;-82
2024/04/04 07:21:01;;;;;;;6.90;5.30;;;;;;;4.93;67.87;99787.77;102776;1263;99164;-80
2024/04/04 07:23:28;;;;;;;5.80;4.70;;;;;;;4.97;67.79;99788.04;102767;1266;111313;-80
2024/04/04 07:25:56;;;;;;;9.00;5.40;;;;;;;4.99;67.70;99787.48;102692;1263;138704;-80
2024/04/04 07:28:24;;;;;;;9.90;5.70;;;;;;;5.02;67.78;99790.35;102836;1263;99043;-79
2024/04/04 07:30:51;;;;;;;7.50;5.60;;;;;;;5.03;67.95;99792.95;102688;1263;138277;-76
2024/04/04 07:33:18;;;;;;;10.70;5.50;;;;;;;4.99;67.88;99795.76;102810;1262;99272;-79
2024/04/04 07:35:45;;;;;;;13.60;5.50;;;;;;;4.92;68.21;99795.70;102809;1262;113418;-80
2024/04/04 07:38:13;;;;;;;9.80;5.80;;;;;;;4.93;68.31;99793.27;102694;1267;138403;-80
2024/04/04 07:40:40;;;;;;;11.90;5.60;;;;;;;4.95;68.46;99791.51;102692;1266;99171;-75
2024/04/04 07:43:08;;;;;;;8.80;6.20;;;;;;;4.98;68.71;99791.45;102528;1267;138374;-80
2024/04/04 07:45:38;;;;;;;9.40;5.70;;;;;;;5.03;68.88;99794.83;102730;1262;99261;-79
2024/04/04 07:48:08;;;;;;;9.40;5.80;;;;;;;5.05;68.84;99795.83;102704;1266;138341;-77
2024/04/04 07:50:35;;;;;;;8.80;5.20;;;;;;;5.10;68.80;99799.02;101231;1266;1003723;-78
2024/04/04 07:53:03;;;;;;;7.90;5.70;;;;;;;5.15;68.84;99798.41;102734;1266;99652;-78
2024/04/04 07:55:30;;;;;;;12.10;6.00;;;;;;;5.24;69.02;99797.23;102725;1264;138349;-79
2024/04/04 07:57:56;;;;;;;9.00;6.00;;;;;;;5.33;69.08;99789.29;102838;1275;99186;-77
2024/04/04 08:00:24;;;;;;;15.40;6.80;;;;;;;5.46;68.95;99787.86;102748;1264;138382;-78
2024/04/04 08:02:51;;;;;;;10.00;5.90;;;;;;;5.56;69.05;99791.11;102728;1267;107387;-80
2024/04/04 08:05:18;;;;;;;10.30;5.80;;;;;;;5.65;69.00;99791.96;102807;1266;99085;-79
2024/04/04 08:07:44;;;;;;;9.20;6.60;;;;;;;5.76;69.19;99790.21;102783;1267;139267;-80
2024/04/04 08:10:15;;;;;;;9.80;5.90;;;;;;;5.83;69.15;99789.89;103006;1266;99185;-80
2024/04/04 08:12:44;;;;;;;14.70;6.60;;;;;;;5.89;68.84;99783.23;102952;1267;138341;-80
2024/04/04 08:15:12;;;;;;;13.70;6.30;;;;;;;5.94;68.92;99781.08;102865;1266;109540;-80
2024/04/04 08:17:40;;;;;;;9.50;6.50;;;;;;;6.04;69.08;99779.31;102816;1266;99249;-80
2024/04/04 08:20:09;;;;;;;12.30;6.70;;;;;;;6.15;68.84;99783.23;102667;1266;138572;-80
2024/04/04 08:22:36;;;;;;;11.70;6.40;;;;;;;6.21;68.77;99780.33;102973;1266;99054;-80
2024/04/04 08:25:03;;;;;;;10.20;6.20;;;;;;;6.27;68.97;99783.98;102877;1266;137356;-80
2024/04/04 08:27:31;;;;;;;11.60;6.10;;;;;;;6.33;68.72;99784.23;102215;1264;1002917;-80
2024/04/04 08:29:57;;;;;;;9.80;6.40;;;;;;;6.34;68.70;99784.88;103003;1278;99181;-80
2024/04/04 08:32:24;;;;;;;11.70;6.60;;;;;;;6.37;68.86;99779.45;102880;1266;107443;-78
2024/04/04 08:34:53;;;;;;;12.20;6.50;;;;;;;6.39;68.87;99777.67;102778;1267;99195;-81
2024/04/04 08:37:21;;;;;;;15.20;7.20;;;;;;;6.37;68.94;99779.45;102752;1266;138578;-73
2024/04/04 08:39:48;;;;;;;11.60;7.00;;;;;;;6.35;69.32;99774.31;102764;1266;106948;-73
2024/04/04 08:42:14;;;;;;;10.90;6.80;;;;;;;6.32;69.51;99776.11;103142;1262;137871;-74
2024/04/04 08:44:42;;;;;;;12.80;7.10;;;;;;;6.30;69.57;99768.41;102806;1263;107559;-75
2024/04/04 08:47:10;;;;;;;11.20;7.50;;;;;;;6.27;69.98;99766.52;102164;1264;1003826;-75
2024/04/04 08:49:40;;;;;;;11.60;7.70;;;;;;;6.30;70.06;99769.77;102778;1264;139699;-74
2024/04/04 08:52:07;;;;;;;15.90;8.00;;;;;;;6.34;70.24;99768.13;102739;1264;107445;-74
2024/04/04 08:54:34;;;;;;;13.70;8.00;;;;;;;6.41;70.53;99769.52;103044;1264;139208;-74
2024/04/04 08:57:02;;;;;;;14.10;8.60;;;;;;;6.47;70.55;99774.21;102030;1266;1002966;-75
2024/04/04 08:59:28;;;;;;;12.10;8.40;;;;;;;6.50;70.59;99775.20;102784;1266;99204;-76
2024/04/04 09:01:55;;;;;;;13.10;8.50;;;;;;;6.47;70.62;99778.02;102710;1264;139329;-76
2024/04/04 09:04:30;;;;;;;19.70;9.30;;;;;;;6.48;70.73;99777.48;102198;1266;1002873;-77
2024/04/04 09:06:57;;;;;;;13.60;9.40;;;;;;;6.51;71.22;99781.21;102753;1264;138970;-73
2024/04/04 09:09:24;;;;;;;12.70;8.80;;;;;;;6.52;71.14;99779.45;103130;1266;108139;-77
2024/04/04 09:11:50;;;;;;;14.90;8.90;;;;;;;6.57;71.47;99776.92;102922;1262;99167;-79
2024/04/04 09:14:18;;;;;;;12.40;9.00;;;;;;;6.66;71.62;99773.44;102751;1266;138217;-80
2024/04/04 09:16:45;;;;;;;14.60;9.30;;;;;;;6.75;71.79;99772.52;103247;1264;109666;-79
2024/04/04 09:19:17;;;;;;;16.10;8.80;;;;;;;6.82;71.79;99770.63;102756;1264;139739;-77
2024/04/04 09:21:45;;;;;;;13.20;9.20;;;;;;;6.90;71.99;99766.44;102797;1266;107782;-77
2024/04/04 09:24:12;;;;;;;19.00;9.90;;;;;;;6.97;72.07;99766.79;102799;1262;140020;-78
2024/04/04 09:26:40;;;;;;;12.60;9.80;;;;;;;7.04;72.16;99765.74;103015;1266;112800;-77
2024/04/04 09:29:08;;;;;;;15.90;9.60;;;;;;;7.12;72.06;99761.91;102329;1264;1003901;-78
2024/04/04 09:31:37;;;;;;;16.20;9.60;;;;;;;7.22;72.20;99759.73;102702;1263;139126;-78
2024/04/04 09:34:04;;;;;;;16.60;9.10;;;;;;;7.38;72.18;99758.83;102825;1267;107114;-78
2024/04/04 09:36:33;;;;;;;14.70;9.80;;;;;;;7.53;72.07;99753.89;102646;1266;138950;-74
2024/04/04 09:39:02;;;;;;;17.60;9.90;;;;;;;7.69;71.83;99750.83;102581;1266;111638;-81
2024/04/04 09:41:42;;;;;;;12.20;9.60;;;;;;;7.84;71.73;99748.52;102760;1267;108156;-82
2024/04/04 09:44:11;;;;;;;12.80;10.10;;;;;;;8.00;71.24;99747.52;102699;1266;139364;-81
2024/04/04 09:46:41;;;;;;;15.30;9.50;;;;;;;8.10;71.08;99750.53;102754;1266;108296;-82
2024/04/04 09:49:09;;;;;;;13.20;10.00;;;;;;;8.21;70.97;99755.04;102695;1264;138776;-74
2024/04/04 09:51:39;;;;;;;15.50;10.20;;;;;;;8.31;70.73;99753.54;102956;1264;111581;-73
2024/04/04 09:54:07;;;;;;;12.50;9.90;;;;;;;8.38;70.52;99752.27;103007;1264;139006;-73
2024/04/04 09:56:35;;;;;;;15.20;10.60;;;;;;;8.44;70.43;99750.91;103006;1264;99294;-72
2024/04/04 09:59:01;;;;;;;16.40;10.30;;;;;;;8.48;70.48;99748.88;102698;1264;107677;-74
2024/04/04 10:01:29;;;;;;;14.30;10.00;;;;;;;8.51;70.63;99740.29;102684;1263;138834;-74
2024/04/04 10:04:02;;;;;;;13.50;10.20;;;;;;;8.62;70.74;99742.54;102813;1264;112580;-75
2024/04/04 10:06:33;;;;;;;14.30;10.30;;;;;;;8.72;70.52;99737.86;102736;1266;139781;-74
2024/04/04 10:09:00;;;;;;;14.50;10.80;;;;;;;8.79;70.32;99736.95;102753;1266;99173;-75
2024/04/04 10:11:33;;;;;;;16.80;10.80;;;;;;;8.81;70.22;99741.57;102714;1264;108583;-75
2024/04/04 10:14:03;;;;;;;12.70;10.00;;;;;;;8.83;70.29;99743.60;102674;1267;138951;-76
2024/04/04 10:16:38;;;;;;;17.00;10.90;;;;;;;8.87;70.39;99746.56;102543;1263;112013;-76
2024/04/04 10:19:13;;;;;;;18.10;11.20;;;;;;;8.97;70.49;99751.09;102462;1266;140980;-77
2024/04/04 10:21:40;;;;;;;14.80;10.80;;;;;;;9.07;70.51;99741.73;102797;1264;99688;-76
2024/04/04 10:24:09;;;;;;;13.00;9.70;;;;;;;9.22;70.37;99746.75;102425;1264;139291;-76
2024/04/04 10:26:36;;;;;;;14.30;9.90;;;;;;;9.42;70.35;99742.59;102257;1264;1003738;-73
2024/04/04 10:29:05;;;;;;;14.10;10.70;;;;;;;9.62;70.17;99739.25;101878;1263;1003761;-77
2024/04/04 10:31:43;;;;;;;14.70;10.90;;;;;;;9.92;70.00;99741.80;104029;1264;139525;-77
2024/04/04 10:34:12;;;;;;;15.70;10.30;;;;;;;10.31;69.33;99736.53;103940;1264;98331;-76
2024/04/04 10:36:42;;;;;;;12.80;10.30;;;;;;;10.62;68.18;99734.23;102724;1264;139188;-76
2024/04/04 10:39:12;;;;;;;16.80;10.00;;;;;;;10.86;67.90;99729.08;102816;1266;99184;-75
2024/04/04 10:41:42;;;;;;;13.50;10.70;;;;;;;11.15;67.28;99727.52;102684;1264;111641;-76
2024/04/04 10:44:14;;;;;;;15.20;10.60;;;;;;;11.39;66.46;99728.18;102822;1264;139285;-76
2024/04/04 10:46:46;;;;;;;13.50;10.10;;;;;;;11.55;65.79;99724.01;102877;1264;99540;-75
2024/04/04 10:49:13;;;;;;;15.90;9.60;;;;;;;11.68;65.93;99719.43;102875;1265;139443;-81
2024/04/04 10:51:43;;;;;;;14.10;10.10;;;;;;;11.81;65.35;99724.45;102786;1264;99255;-78
2024/04/04 10:54:10;;;;;;;15.10;10.20;;;;;;;11.87;65.01;99729.04;102750;1264;139184;-84
2024/04/04 10:56:37;;;;;;;16.30;11.40;;;;;;;11.90;65.06;99728.40;102780;1266;107335;-83
2024/04/04 10:59:04;;;;;;;13.90;10.10;;;;;;;11.94;65.10;99731.33;102792;1264;100882;-82
2024/04/04 11:01:32;;;;;;;11.10;8.90;;;;;;;12.05;65.05;99728.20;102670;1264;138343;-85
2024/04/04 11:03:59;;;;;;;13.90;10.00;;;;;;;12.42;65.11;99727.34;102877;1264;99203;-86
2024/04/04 11:06:30;;;;;;;14.10;9.90;;;;;;;12.78;64.82;99725.58;102711;1264;139279;-86
2024/04/04 11:09:04;;;;;;;13.00;9.90;;;;;;;13.15;64.12;99715.84;102812;1264;109850;-85
2024/04/04 11:11:31;;;;;;;15.80;10.20;;;;;;;13.43;63.45;99713.24;102079;1264;1003608;-77
2024/04/04 11:13:58;;;;;;;13.90;10.60;;;;;;;13.65;62.93;99711.72;102661;1263;138862;-78
2024/04/04 11:16:26;;;;;;;12.60;9.60;;;;;;;13.87;62.72;99709.27;102793;1266;99268;-78
2024/04/04 11:18:54;;;;;;;14.10;9.00;;;;;;;14.19;62.51;99705.05;102799;1266;138269;-81
2024/04/04 11:21:21;;;;;;;12.80;8.90;;;;;;;14.50;61.78;99707.71;103549;1262;107212;-79
2024/04/04 11:23:48;;;;;;;13.80;9.50;;;;;;;14.68;60.38;99708.64;102765;1264;99237;-79